createdAt,value
2023-01-20T00:02:16.896Z,97201.00
2023-01-20T00:04:59.386Z,97184.88
2023-01-20T00:07:29.192Z,97195.81
2023-01-20T00:09:59.549Z,97201.47
2023-01-20T00:12:37.319Z,97200.81
2023-01-20T00:15:24.597Z,97176.62
2023-01-20T00:17:58.244Z,97205.59
2023-01-20T00:20:43.043Z,97186.03
2023-01-20T00:23:14.676Z,97192.41
2023-01-20T00:25:41.879Z,97192.94
2023-01-20T00:28:36.091Z,97208.44
2023-01-20T00:31:26.352Z,97197.50
2023-01-20T00:34:09.231Z,97211.63
2023-01-20T00:36:44.013Z,97205.44
2023-01-20T00:39:18.922Z,97194.66
2023-01-20T00:41:54.376Z,97190.69
2023-01-20T00:44:39.261Z,97189.22
2023-01-20T00:47:32.397Z,97198.69
2023-01-20T00:50:02.366Z,97203.97
2023-01-20T00:52:39.629Z,97210.63
2023-01-20T00:55:13.893Z,97190.53
2023-01-20T00:57:44.220Z,97189.50
2023-01-20T01:00:15.144Z,97207.00
2023-01-20T01:02:54.923Z,97205.13
2023-01-20T01:05:33.237Z,97188.97
2023-01-20T01:08:18.731Z,97200.72
2023-01-20T01:11:33.299Z,97205.19
2023-01-20T01:14:08.015Z,97219.37
2023-01-20T01:16:46.102Z,97227.25
2023-01-20T01:19:20.939Z,97215.06
2023-01-20T01:21:59.366Z,97228.19
2023-01-20T01:24:33.829Z,97218.19
2023-01-20T01:27:11.841Z,97201.66
2023-01-20T01:29:53.896Z,97211.66
2023-01-20T01:32:43.437Z,97203.81
2023-01-20T01:35:23.069Z,97192.53
2023-01-20T01:37:53.148Z,97202.97
2023-01-20T01:41:01.127Z,97190.78
2023-01-20T01:43:36.993Z,97179.09
2023-01-20T01:46:07.707Z,97193.09
2023-01-20T01:49:23.978Z,97193.84
2023-01-20T01:52:27.593Z,97185.91
2023-01-20T01:55:11.043Z,97201.59
2023-01-20T01:57:49.933Z,97214.84
2023-01-20T02:00:33.604Z,97212.94
2023-01-20T02:03:01.026Z,97196.69
2023-01-20T02:05:35.922Z,97199.50
2023-01-20T02:08:03.869Z,97197.63
2023-01-20T02:10:46.106Z,97210.13
2023-01-20T02:13:15.392Z,97210.94
2023-01-20T02:15:59.271Z,97217.06
2023-01-20T02:19:04.999Z,97200.97
2023-01-20T02:22:03.601Z,97196.25
2023-01-20T02:24:48.344Z,97193.84
2023-01-20T02:27:24.039Z,97201.94
2023-01-20T02:30:28.392Z,97203.09
2023-01-20T02:33:16.063Z,97203.63
2023-01-20T02:35:49.233Z,97181.91
2023-01-20T02:38:37.279Z,97160.56
2023-01-20T02:41:27.479Z,97176.28
2023-01-20T02:44:27.836Z,97179.03
2023-01-20T02:47:23.858Z,97185.97
2023-01-20T02:50:10.548Z,97187.87
2023-01-20T02:52:43.725Z,97182.09
2023-01-20T02:55:20.828Z,97197.16
2023-01-20T02:57:59.454Z,97193.00
2023-01-20T03:00:45.071Z,97198.06
2023-01-20T03:03:31.579Z,97195.63
2023-01-20T03:06:09.521Z,97182.19
2023-01-20T03:08:52.229Z,97185.31
2023-01-20T03:11:21.935Z,97198.44
2023-01-20T03:14:03.544Z,97191.91
2023-01-20T03:16:38.961Z,97189.13
2023-01-20T03:19:09.482Z,97185.09
2023-01-20T03:21:46.824Z,97181.63
2023-01-20T03:24:19.029Z,97173.56
2023-01-20T03:26:55.386Z,97178.28
2023-01-20T03:29:25.523Z,97168.50
2023-01-20T03:32:07.542Z,97168.88
2023-01-20T03:34:48.469Z,97185.62
2023-01-20T03:37:22.323Z,97198.50
2023-01-20T03:40:24.596Z,97206.75
2023-01-20T03:43:17.300Z,97216.25
2023-01-20T03:46:03.091Z,97206.44
2023-01-20T03:48:57.189Z,97206.16
2023-01-20T03:51:38.228Z,97192.22
2023-01-20T03:54:22.465Z,97220.16
2023-01-20T03:57:10.390Z,97235.59
2023-01-20T03:59:47.952Z,97234.19
2023-01-20T04:02:23.233Z,97230.94
2023-01-20T04:05:09.370Z,97220.41
2023-01-20T04:07:38.267Z,97197.03
2023-01-20T04:10:15.228Z,97153.22
2023-01-20T04:13:00.939Z,97148.41
2023-01-20T04:15:57.463Z,97162.81
2023-01-20T04:18:32.363Z,97182.69
2023-01-20T04:21:34.586Z,97176.66
2023-01-20T04:24:30.155Z,97166.16
2023-01-20T04:27:07.790Z,97158.41
2023-01-20T04:29:34.907Z,97165.97
2023-01-20T04:32:06.790Z,97175.09
2023-01-20T04:34:34.396Z,97164.81
2023-01-20T04:37:09.622Z,97159.50
2023-01-20T04:39:41.715Z,97153.84
2023-01-20T04:42:14.035Z,97159.97
2023-01-20T04:44:43.530Z,97172.34
2023-01-20T04:47:15.756Z,97161.91
2023-01-20T04:49:48.024Z,97157.69
2023-01-20T04:52:20.837Z,97156.00
2023-01-20T04:54:56.336Z,97157.22
2023-01-20T04:57:23.473Z,97161.44
2023-01-20T04:59:53.407Z,97152.84
2023-01-20T05:02:22.998Z,97143.53
2023-01-20T05:04:50.466Z,97146.31
2023-01-20T05:07:20.960Z,97148.72
2023-01-20T05:09:54.106Z,97155.84
2023-01-20T05:12:24.080Z,97144.63
2023-01-20T05:14:54.234Z,97143.03
2023-01-20T05:17:26.644Z,97158.22
2023-01-20T05:20:03.620Z,97152.47
2023-01-20T05:22:36.500Z,97172.75
2023-01-20T05:25:06.350Z,97167.53
2023-01-20T05:27:40.032Z,97180.87
2023-01-20T05:30:18.914Z,97191.84
2023-01-20T05:32:52.740Z,97179.81
2023-01-20T05:35:19.929Z,97200.59
2023-01-20T05:37:53.314Z,97192.50
2023-01-20T05:40:23.812Z,97213.41
2023-01-20T05:43:02.446Z,97212.47
2023-01-20T05:45:32.943Z,97211.63
2023-01-20T05:48:06.708Z,97222.28
2023-01-20T05:50:38.738Z,97222.03
2023-01-20T05:53:08.667Z,97218.37
2023-01-20T05:55:55.717Z,97210.34
2023-01-20T05:58:32.783Z,97199.34
2023-01-20T06:01:11.255Z,97206.88
2023-01-20T06:03:41.428Z,97220.22
2023-01-20T06:06:37.806Z,97213.72
2023-01-20T06:09:11.198Z,97221.28
2023-01-20T06:11:49.138Z,97219.34
2023-01-20T06:14:16.069Z,97216.63
2023-01-20T06:16:42.881Z,97216.12
2023-01-20T06:19:09.568Z,97210.75
2023-01-20T06:21:36.541Z,97215.25
2023-01-20T06:24:03.503Z,97211.00
2023-01-20T06:26:30.349Z,97210.16
2023-01-20T06:29:01.588Z,97214.28
2023-01-20T06:31:28.826Z,97216.44
2023-01-20T06:33:56.595Z,97210.59
2023-01-20T06:36:23.962Z,97211.44
2023-01-20T06:38:51.297Z,97211.22
2023-01-20T06:41:19.552Z,97215.44
2023-01-20T06:43:46.753Z,97220.66
2023-01-20T06:46:15.466Z,97223.41
2023-01-20T06:48:43.323Z,97214.81
2023-01-20T06:51:12.714Z,97216.84
2023-01-20T06:53:39.621Z,97215.44
2023-01-20T06:56:06.887Z,97214.19
2023-01-20T06:58:34.373Z,97212.22
2023-01-20T07:01:09.050Z,97208.94
2023-01-20T07:03:36.616Z,97212.78
2023-01-20T07:06:15.446Z,97214.94
2023-01-20T07:08:44.062Z,97222.09
2023-01-20T07:11:11.113Z,97217.81
2023-01-20T07:13:41.439Z,97223.88
2023-01-20T07:16:10.763Z,97226.59
2023-01-20T07:18:39.172Z,97231.56
2023-01-20T07:21:06.636Z,97229.72
2023-01-20T07:23:34.031Z,97231.34
2023-01-20T07:26:02.176Z,97222.84
2023-01-20T07:28:29.314Z,97219.72
2023-01-20T07:30:56.506Z,97223.50
2023-01-20T07:33:23.382Z,97216.63
2023-01-20T07:35:54.321Z,97219.16
2023-01-20T07:38:21.369Z,97223.25
2023-01-20T07:40:48.343Z,97226.56
2023-01-20T07:43:15.477Z,97209.81
2023-01-20T07:45:42.495Z,97219.25
2023-01-20T07:48:09.498Z,97214.62
2023-01-20T07:50:36.833Z,97228.22
2023-01-20T07:53:04.324Z,97232.25
2023-01-20T07:55:31.214Z,97236.53
2023-01-20T07:57:58.985Z,97236.75
2023-01-20T08:00:25.873Z,97242.28
2023-01-20T08:02:52.721Z,97246.69
2023-01-20T08:05:19.404Z,97241.22
2023-01-20T08:07:50.797Z,97238.69
2023-01-20T08:10:17.705Z,97250.91
2023-01-20T08:12:44.617Z,97252.88
2023-01-20T08:15:11.758Z,97263.69
2023-01-20T08:17:38.652Z,97254.34
2023-01-20T08:20:06.237Z,97260.44
2023-01-20T08:22:34.808Z,97259.53
2023-01-20T08:25:01.650Z,97261.38
2023-01-20T08:27:28.382Z,97268.50
2023-01-20T08:29:55.810Z,97269.03
2023-01-20T08:32:22.747Z,97270.97
2023-01-20T08:34:49.627Z,97265.63
2023-01-20T08:37:16.495Z,97264.78
2023-01-20T08:39:43.510Z,97266.09
2023-01-20T08:42:10.411Z,97265.03
2023-01-20T08:44:37.296Z,97274.84
2023-01-20T08:47:04.221Z,97274.38
2023-01-20T08:49:31.160Z,97283.41
2023-01-20T08:51:58.206Z,97287.69
2023-01-20T08:54:25.628Z,97282.59
2023-01-20T08:56:53.334Z,97290.69
2023-01-20T08:59:20.829Z,97280.59
2023-01-20T09:01:47.706Z,97273.34
2023-01-20T09:04:14.377Z,97268.31
2023-01-20T09:06:46.563Z,97271.47
2023-01-20T09:09:15.247Z,97266.66
2023-01-20T09:11:44.993Z,97267.16
2023-01-20T09:14:12.209Z,97270.75
2023-01-20T09:16:39.065Z,97262.47
2023-01-20T09:19:05.721Z,97262.16
2023-01-20T09:21:33.296Z,97263.38
2023-01-20T09:24:00.387Z,97265.34
2023-01-20T09:26:35.695Z,97277.78
2023-01-20T09:29:09.835Z,97267.72
2023-01-20T09:31:45.811Z,97263.75
2023-01-20T09:34:19.392Z,97265.81
2023-01-20T09:36:46.652Z,97267.53
2023-01-20T09:39:32.509Z,97265.34
2023-01-20T09:42:20.659Z,97263.63
2023-01-20T09:44:52.658Z,97262.22
2023-01-20T09:47:31.619Z,97259.88
2023-01-20T09:50:29.368Z,97259.78
2023-01-20T09:53:16.318Z,97262.34
2023-01-20T09:55:48.996Z,97256.59
2023-01-20T09:58:18.797Z,97253.00
2023-01-20T10:00:50.722Z,97256.44
2023-01-20T10:03:29.820Z,97248.25
2023-01-20T10:05:59.045Z,97248.50
2023-01-20T10:09:05.791Z,97241.09
2023-01-20T10:11:41.679Z,97234.97
2023-01-20T10:14:36.649Z,97235.34
2023-01-20T10:17:25.536Z,97230.03
2023-01-20T10:20:06.190Z,97222.66
2023-01-20T10:22:43.473Z,97214.00
2023-01-20T10:25:18.819Z,97219.44
2023-01-20T10:27:52.106Z,97219.63
2023-01-20T10:30:19.854Z,97224.69
2023-01-20T10:32:57.730Z,97223.12
2023-01-20T10:35:29.655Z,97215.88
2023-01-20T10:37:58.615Z,97214.47
2023-01-20T10:40:45.244Z,97216.09
2023-01-20T10:43:14.130Z,97211.06
2023-01-20T10:46:02.862Z,97215.34
2023-01-20T10:48:32.622Z,97216.91
2023-01-20T10:51:11.301Z,97222.66
2023-01-20T10:53:58.452Z,97220.81
2023-01-20T10:56:36.850Z,97232.78
2023-01-20T10:59:10.238Z,97225.38
2023-01-20T11:01:37.142Z,97237.62
2023-01-20T11:04:04.457Z,97240.25
2023-01-20T11:06:31.329Z,97236.28
2023-01-20T11:09:05.677Z,97241.37
2023-01-20T11:11:32.627Z,97231.12
2023-01-20T11:13:59.770Z,97242.13
2023-01-20T11:16:29.138Z,97241.72
2023-01-20T11:19:04.395Z,97236.03
2023-01-20T11:21:33.612Z,97232.94
2023-01-20T11:24:00.718Z,97234.94
2023-01-20T11:26:35.700Z,97236.16
2023-01-20T11:29:11.596Z,97226.87
2023-01-20T11:31:43.029Z,97224.38
2023-01-20T11:34:32.921Z,97214.91
2023-01-20T11:37:05.533Z,97222.69
2023-01-20T11:39:42.595Z,97227.97
2023-01-20T11:42:16.968Z,97207.09
2023-01-20T11:44:45.347Z,97206.47
2023-01-20T11:47:23.846Z,97208.84
2023-01-20T11:50:09.281Z,97210.66
2023-01-20T11:52:42.780Z,97207.31
2023-01-20T11:55:14.580Z,97198.28
2023-01-20T11:57:47.429Z,97191.94
2023-01-20T12:00:20.266Z,97185.09
2023-01-20T12:03:24.768Z,97187.63
2023-01-20T12:05:56.653Z,97183.53
2023-01-20T12:08:39.053Z,97193.41
2023-01-20T12:11:08.151Z,97189.59
2023-01-20T12:14:25.519Z,97197.06
2023-01-20T12:17:33.937Z,97193.12
2023-01-20T12:20:06.871Z,97196.34
2023-01-20T12:22:54.642Z,97180.34
2023-01-20T12:25:26.167Z,97180.87
2023-01-20T12:28:04.354Z,97195.16
2023-01-20T12:30:45.951Z,97188.47
2023-01-20T12:33:37.493Z,97188.31
2023-01-20T12:36:30.139Z,97199.38
2023-01-20T12:39:26.830Z,97191.59
2023-01-20T12:42:11.701Z,97194.06
2023-01-20T12:44:38.542Z,97192.88
2023-01-20T12:47:07.952Z,97187.87
2023-01-20T12:49:41.251Z,97198.13
2023-01-20T12:52:31.255Z,97193.31
2023-01-20T12:55:22.910Z,97190.13
2023-01-20T12:58:08.460Z,97194.78
2023-01-20T13:01:03.042Z,97197.63
2023-01-20T13:03:51.315Z,97208.59
2023-01-20T13:06:58.403Z,97209.66
2023-01-20T13:09:38.914Z,97218.06
2023-01-20T13:12:13.573Z,97204.72
2023-01-20T13:14:43.932Z,97203.03
2023-01-20T13:17:34.958Z,97195.75
2023-01-20T13:20:04.948Z,97216.94
2023-01-20T13:22:32.473Z,97210.59
2023-01-20T13:25:00.879Z,97217.72
2023-01-20T13:27:37.930Z,97225.91
2023-01-20T13:30:08.442Z,97221.97
2023-01-20T13:32:45.595Z,97226.37
2023-01-20T13:35:35.510Z,97238.00
2023-01-20T13:38:02.694Z,97228.09
2023-01-20T13:40:38.518Z,97236.06
2023-01-20T13:43:25.681Z,97238.09
2023-01-20T13:46:17.685Z,97239.19
2023-01-20T13:49:23.129Z,97245.12
2023-01-20T13:51:50.588Z,97232.53
2023-01-20T13:54:44.098Z,97241.94
2023-01-20T13:57:28.140Z,97247.50
2023-01-20T13:59:55.729Z,97246.34
2023-01-20T14:02:26.428Z,97249.66
2023-01-20T14:04:54.692Z,97252.47
2023-01-20T14:07:26.105Z,97247.25
2023-01-20T14:09:58.310Z,97257.66
2023-01-20T14:12:25.412Z,97259.53
2023-01-20T14:14:52.558Z,97251.41
2023-01-20T14:17:21.411Z,97255.56
2023-01-20T14:19:50.164Z,97268.72
2023-01-20T14:22:18.712Z,97268.56
2023-01-20T14:24:47.304Z,97271.19
2023-01-20T14:27:17.146Z,97268.88
2023-01-20T14:29:45.398Z,97270.84
2023-01-20T14:32:30.822Z,97269.56
2023-01-20T14:34:58.387Z,97279.44
2023-01-20T14:37:36.069Z,97271.19
2023-01-20T14:40:12.120Z,97268.97
2023-01-20T14:42:40.125Z,97270.22
2023-01-20T14:45:19.184Z,97267.97
2023-01-20T14:47:46.209Z,97274.28
2023-01-20T14:50:15.163Z,97275.44
2023-01-20T14:52:42.729Z,97276.03
2023-01-20T14:55:56.334Z,97273.63
2023-01-20T14:58:24.364Z,97283.12
2023-01-20T15:00:52.137Z,97271.75
2023-01-20T15:03:30.100Z,97281.09
2023-01-20T15:05:58.508Z,97286.72
2023-01-20T15:08:35.064Z,97295.69
2023-01-20T15:11:14.297Z,97298.50
2023-01-20T15:13:43.347Z,97281.88
2023-01-20T15:16:14.120Z,97288.91
2023-01-20T15:18:41.020Z,97301.09
2023-01-20T15:21:17.289Z,97297.34
2023-01-20T15:23:45.970Z,97300.91
2023-01-20T15:26:28.549Z,97298.13
2023-01-20T15:28:56.204Z,97300.38
2023-01-20T15:31:23.937Z,97304.47
2023-01-20T15:33:50.975Z,97316.22
2023-01-20T15:36:23.805Z,97310.94
2023-01-20T15:38:50.956Z,97308.72
2023-01-20T15:41:18.412Z,97301.59
2023-01-20T15:43:45.747Z,97314.28
2023-01-20T15:46:13.748Z,97317.91
2023-01-20T15:48:41.085Z,97321.94
2023-01-20T15:51:13.806Z,97319.59
2023-01-20T15:53:40.914Z,97302.72
2023-01-20T15:56:16.766Z,97323.53
2023-01-20T15:58:43.856Z,97322.44
2023-01-20T16:01:14.158Z,97324.72
2023-01-20T16:03:41.006Z,97317.69
2023-01-20T16:06:14.616Z,97331.63
2023-01-20T16:08:42.524Z,97333.44
2023-01-20T16:11:10.731Z,97334.13
2023-01-20T16:13:38.727Z,97342.53
2023-01-20T16:16:09.476Z,97338.75
2023-01-20T16:18:37.203Z,97353.34
2023-01-20T16:21:04.872Z,97344.75
2023-01-20T16:23:31.731Z,97343.44
2023-01-20T16:25:58.385Z,97355.78
2023-01-20T16:28:25.336Z,97352.28
2023-01-20T16:30:54.196Z,97358.28
2023-01-20T16:33:25.882Z,97355.00
2023-01-20T16:35:56.593Z,97351.00
2023-01-20T16:38:25.985Z,97358.66
2023-01-20T16:41:01.618Z,97351.41
2023-01-20T16:43:29.407Z,97356.25
2023-01-20T16:45:56.529Z,97343.03
2023-01-20T16:48:24.865Z,97352.66
2023-01-20T16:50:53.283Z,97361.75
2023-01-20T16:53:20.462Z,97367.53
2023-01-20T16:55:48.311Z,97367.09
2023-01-20T16:58:16.073Z,97358.69
2023-01-20T17:00:43.399Z,97354.25
2023-01-20T17:03:10.310Z,97366.81
2023-01-20T17:05:37.202Z,97374.41
2023-01-20T17:08:03.906Z,97369.84
2023-01-20T17:10:32.571Z,97369.84
2023-01-20T17:12:59.893Z,97370.38
2023-01-20T17:15:27.251Z,97359.38
2023-01-20T17:17:58.156Z,97373.28
2023-01-20T17:20:28.375Z,97357.78
2023-01-20T17:22:58.018Z,97353.66
2023-01-20T17:25:25.022Z,97352.59
2023-01-20T17:27:51.889Z,97352.28
2023-01-20T17:30:19.250Z,97351.31
2023-01-20T17:32:48.445Z,97345.16
2023-01-20T17:35:16.292Z,97344.16
2023-01-20T17:37:43.215Z,97346.03
2023-01-20T17:40:12.121Z,97334.91
2023-01-20T17:42:39.302Z,97346.47
2023-01-20T17:45:06.717Z,97344.97
2023-01-20T17:47:33.623Z,97339.97
2023-01-20T17:50:00.497Z,97336.66
2023-01-20T17:52:28.564Z,97336.97
2023-01-20T17:54:55.413Z,97338.03
2023-01-20T17:57:22.119Z,97328.47
2023-01-20T17:59:49.165Z,97319.16
2023-01-20T18:02:18.739Z,97318.78
2023-01-20T18:04:45.695Z,97301.78
2023-01-20T18:07:12.555Z,97308.41
2023-01-20T18:09:40.601Z,97307.88
2023-01-20T18:12:08.976Z,97310.47
2023-01-20T18:14:35.895Z,97309.41
2023-01-20T18:17:02.857Z,97301.44
2023-01-20T18:19:29.848Z,97322.22
2023-01-20T18:21:56.733Z,97309.94
2023-01-20T18:24:23.618Z,97312.81
2023-01-20T18:26:50.464Z,97313.22
2023-01-20T18:29:17.536Z,97307.22
2023-01-20T18:31:46.760Z,97302.66
2023-01-20T18:34:15.919Z,97295.53
2023-01-20T18:36:46.196Z,97298.94
2023-01-20T18:39:21.735Z,97298.84
2023-01-20T18:41:49.231Z,97303.50
2023-01-20T18:44:16.676Z,97304.31
2023-01-20T18:46:43.651Z,97287.84
2023-01-20T18:49:14.882Z,97300.22
2023-01-20T18:51:45.075Z,97299.44
2023-01-20T18:54:14.328Z,97295.31
2023-01-20T18:56:41.184Z,97310.84
2023-01-20T18:59:08.222Z,97311.75
2023-01-20T19:01:39.716Z,97305.97
2023-01-20T19:04:09.287Z,97302.25
2023-01-20T19:06:39.091Z,97315.84
2023-01-20T19:09:06.709Z,97317.19
2023-01-20T19:11:36.542Z,97311.91
2023-01-20T19:14:03.806Z,97314.31
2023-01-20T19:16:32.739Z,97304.91
2023-01-20T19:19:02.261Z,97285.81
2023-01-20T19:21:31.534Z,97298.72
2023-01-20T19:24:01.464Z,97301.50
2023-01-20T19:26:28.815Z,97295.50
2023-01-20T19:29:02.728Z,97293.66
2023-01-20T19:31:31.374Z,97290.31
2023-01-20T19:33:58.677Z,97299.25
2023-01-20T19:36:25.639Z,97319.81
2023-01-20T19:38:52.622Z,97314.53
2023-01-20T19:41:28.213Z,97320.88
2023-01-20T19:43:57.496Z,97331.06
2023-01-20T19:46:27.222Z,97337.81
2023-01-20T19:48:56.192Z,97334.22
2023-01-20T19:51:23.461Z,97335.25
2023-01-20T19:53:55.709Z,97324.81
2023-01-20T19:56:22.783Z,97330.69
2023-01-20T19:58:52.036Z,97323.31
2023-01-20T20:01:23.700Z,97333.81
2023-01-20T20:03:51.643Z,97340.59
2023-01-20T20:06:31.906Z,97351.09
2023-01-20T20:09:05.789Z,97346.06
2023-01-20T20:11:33.290Z,97358.41
2023-01-20T20:14:01.869Z,97346.31
2023-01-20T20:16:31.249Z,97374.56
2023-01-20T20:18:58.948Z,97363.97
2023-01-20T20:21:27.306Z,97366.91
2023-01-20T20:23:56.773Z,97369.91
2023-01-20T20:26:26.079Z,97354.38
2023-01-20T20:28:53.566Z,97372.69
2023-01-20T20:31:22.324Z,97364.06
2023-01-20T20:33:49.285Z,97364.28
2023-01-20T20:36:16.185Z,97377.28
2023-01-20T20:38:42.864Z,97376.50
2023-01-20T20:41:10.183Z,97374.53
2023-01-20T20:43:38.242Z,97369.13
2023-01-20T20:46:06.978Z,97382.38
2023-01-20T20:48:35.427Z,97384.56
2023-01-20T20:51:06.991Z,97388.25
2023-01-20T20:53:34.158Z,97382.47
2023-01-20T20:56:04.198Z,97385.13
2023-01-20T20:58:31.927Z,97386.91
2023-01-20T21:01:01.192Z,97387.37
2023-01-20T21:03:28.470Z,97388.06
2023-01-20T21:05:55.534Z,97383.75
2023-01-20T21:08:22.356Z,97393.72
2023-01-20T21:10:49.025Z,97395.34
2023-01-20T21:13:15.859Z,97387.50
2023-01-20T21:15:42.727Z,97401.84
2023-01-20T21:18:09.706Z,97408.81
2023-01-20T21:20:36.577Z,97398.41
2023-01-20T21:23:04.261Z,97399.31
2023-01-20T21:25:32.977Z,97396.03
2023-01-20T21:27:59.861Z,97407.88
2023-01-20T21:30:26.781Z,97409.37
2023-01-20T21:32:54.272Z,97406.28
2023-01-20T21:35:21.161Z,97417.13
2023-01-20T21:37:48.011Z,97406.34
2023-01-20T21:40:15.293Z,97423.63
2023-01-20T21:42:42.368Z,97424.78
2023-01-20T21:45:09.897Z,97425.97
2023-01-20T21:47:36.798Z,97437.41
2023-01-20T21:50:22.045Z,97452.03
2023-01-20T21:52:49.802Z,97445.81
2023-01-20T21:55:21.718Z,97451.00
2023-01-20T21:57:51.151Z,97446.69
2023-01-20T22:00:18.832Z,97459.78
2023-01-20T22:02:46.155Z,97439.81
2023-01-20T22:05:13.575Z,97458.06
2023-01-20T22:07:40.504Z,97452.50
2023-01-20T22:10:07.962Z,97470.03
2023-01-20T22:12:35.736Z,97459.12
2023-01-20T22:15:03.629Z,97462.72
2023-01-20T22:17:31.053Z,97454.87
2023-01-20T22:19:57.965Z,97448.91
2023-01-20T22:22:24.876Z,97442.81
2023-01-20T22:24:52.097Z,97442.75
2023-01-20T22:27:18.941Z,97450.28
2023-01-20T22:29:46.292Z,97446.34
2023-01-20T22:32:13.170Z,97453.88
2023-01-20T22:34:40.036Z,97463.75
2023-01-20T22:37:06.897Z,97463.25
2023-01-20T22:39:33.859Z,97454.50
2023-01-20T22:42:00.698Z,97449.66
2023-01-20T22:44:27.335Z,97463.25
2023-01-20T22:46:54.295Z,97459.03
2023-01-20T22:49:21.166Z,97464.06
2023-01-20T22:51:48.059Z,97453.78
2023-01-20T22:54:14.964Z,97460.00
2023-01-20T22:56:41.610Z,97473.34
2023-01-20T22:59:12.237Z,97464.72
2023-01-20T23:01:39.439Z,97457.16
2023-01-20T23:04:06.890Z,97455.22
2023-01-20T23:06:36.103Z,97457.38
2023-01-20T23:09:08.835Z,97462.66
2023-01-20T23:11:40.311Z,97448.81
2023-01-20T23:14:09.551Z,97451.38
2023-01-20T23:16:36.842Z,97458.34
2023-01-20T23:19:03.809Z,97443.75
2023-01-20T23:21:31.351Z,97451.59
2023-01-20T23:23:58.214Z,97452.31
2023-01-20T23:26:26.320Z,97438.31
2023-01-20T23:28:54.042Z,97456.94
2023-01-20T23:31:22.443Z,97456.13
2023-01-20T23:33:49.672Z,97457.97
2023-01-20T23:36:18.819Z,97460.69
2023-01-20T23:38:46.046Z,97451.84
2023-01-20T23:41:13.822Z,97454.87
2023-01-20T23:43:41.156Z,97456.03
2023-01-20T23:46:08.655Z,97455.09
2023-01-20T23:48:36.201Z,97447.84
2023-01-20T23:51:03.996Z,97456.19
2023-01-20T23:53:32.516Z,97448.53
2023-01-20T23:56:04.083Z,97453.38
2023-01-20T23:58:30.951Z,97443.91
